Time,TemperatureF,DewpointF,PressureIn,WindDirection,WindDirectionDegrees,WindSpeedMPH,WindSpeedGustMPH,Humidity,HourlyPrecipIn,Conditions,Clouds,dailyrainin,SoftwareType,DateUTC
2013-06-18 00:00:00,46.0,-99.9,-100.00,North,0,0.0,0.0,-999,-99.99,,,0.00,,2013-06-18 06:00:00,
2013-06-18 00:53:00,46.0,-99.9,-100.00,North,0,0.0,0.0,-999,-99.99,,,0.00,,2013-06-18 06:53:00,
2013-06-18 01:00:00,45.0,-99.9,-100.00,North,-999,-999.0,-999.0,-999,-99.99,,,0.00,,2013-06-18 07:00:00,
2013-06-18 01:53:00,45.0,-99.9,-100.00,North,-999,-999.0,-999.0,-999,-99.99,,,0.00,,2013-06-18 07:53:00,
2013-06-18 02:00:00,48.0,-99.9,-100.00,North,0,0.0,5.0,-999,-99.99,,,0.00,,2013-06-18 08:00:00,
2013-06-18 02:52:00,48.0,-99.9,-100.00,North,0,0.0,5.0,-999,-99.99,,,0.00,,2013-06-18 08:52:00,
2013-06-18 03:00:00,43.0,-99.9,-100.00,North,0,0.0,0.0,-999,-99.99,,,0.00,,2013-06-18 09:00:00,
2013-06-18 03:53:00,43.0,-99.9,-100.00,North,0,0.0,0.0,-999,-99.99,,,0.00,,2013-06-18 09:53:00,
2013-06-18 04:53:00,39.0,-99.9,-100.00,North,0,0.0,0.0,-999,-99.99,,,0.00,,2013-06-18 10:53:00,
2013-06-18 06:00:00,40.0,-99.9,-100.00,North,360,0.0,0.0,-999,-99.99,,,0.00,,2013-06-18 12:00:00,
2013-06-18 06:52:00,40.0,-99.9,-100.00,North,360,0.0,0.0,-999,-99.99,,,0.00,,2013-06-18 12:52:00,
2013-06-18 07:53:00,43.0,-99.9,-100.00,North,360,0.0,0.0,-999,-99.99,,,0.00,,2013-06-18 13:53:00,
2013-06-18 08:00:00,58.0,-99.9,-100.00,North,360,0.0,6.0,-999,-99.99,,,-99.99,,2013-06-18 14:00:00,
2013-06-18 08:53:00,58.0,-99.9,-100.00,North,360,0.0,6.0,-999,-99.99,,,-99.99,,2013-06-18 14:53:00,
2013-06-18 09:53:00,67.0,-99.9,-100.00,North,360,0.0,0.0,-999,-99.99,,,-99.99,,2013-06-18 15:53:00,
2013-06-18 10:00:00,69.0,-99.9,-100.00,North,0,0.0,0.0,-999,-99.99,,,0.00,,2013-06-18 16:00:00,
2013-06-18 10:43:00,69.0,-99.9,-100.00,North,0,0.0,0.0,-999,-99.99,,,0.00,,2013-06-18 16:43:00,
2013-06-18 10:53:00,69.0,-99.9,-100.00,North,0,0.0,0.0,-999,-99.99,,,0.00,,2013-06-18 16:53:00,
2013-06-18 11:00:00,68.0,-99.9,-100.00,North,360,0.0,0.0,-999,-99.99,,,0.00,,2013-06-18 17:00:00,
2013-06-18 11:53:00,68.0,-99.9,-100.00,North,360,0.0,0.0,-999,-99.99,,,0.00,,2013-06-18 17:53:00,
2013-06-18 12:00:00,68.0,-99.9,-100.00,North,360,0.0,0.0,-999,-99.99,,,0.00,,2013-06-18 18:00:00,
2013-06-18 12:53:00,68.0,-99.9,-100.00,North,360,0.0,0.0,-999,-99.99,,,0.00,,2013-06-18 18:53:00,
2013-06-18 13:00:00,70.0,-99.9,-100.00,North,0,0.0,0.0,-999,-99.99,,,0.00,,2013-06-18 19:00:00,
2013-06-18 13:53:00,70.0,-99.9,-100.00,North,0,0.0,0.0,-999,-99.99,,,0.00,,2013-06-18 19:53:00,
2013-06-18 14:00:00,71.0,-99.9,-100.00,North,-999,-999.0,-999.0,-999,-99.99,,,0.00,,2013-06-18 20:00:00,
2013-06-18 14:53:00,71.0,-99.9,-100.00,North,-999,-999.0,-999.0,-999,-99.99,,,0.00,,2013-06-18 20:53:00,
2013-06-18 15:00:00,70.0,-99.9,-100.00,North,0,0.0,0.0,-999,-99.99,,,-99.99,,2013-06-18 21:00:00,
2013-06-18 15:43:00,71.0,-99.9,-100.00,North,0,0.0,0.0,-999,-99.99,,,-99.99,,2013-06-18 21:43:00,
2013-06-18 15:53:00,70.0,-99.9,-100.00,North,0,0.0,0.0,-999,-99.99,,,-99.99,,2013-06-18 21:53:00,
2013-06-18 16:00:00,74.0,-99.9,-100.00,North,-999,-999.0,-999.0,-999,-99.99,,,0.00,,2013-06-18 22:00:00,
2013-06-18 16:43:00,74.0,-99.9,-100.00,North,-999,-999.0,-999.0,-999,-99.99,,,0.00,,2013-06-18 22:43:00,
2013-06-18 16:53:00,74.0,-99.9,-100.00,North,-999,-999.0,-999.0,-999,-99.99,,,0.00,,2013-06-18 22:53:00,
2013-06-18 17:00:00,73.0,-99.9,-100.00,North,360,0.0,0.0,-999,-99.99,,,0.00,,2013-06-18 23:00:00,
2013-06-18 17:53:00,73.0,-99.9,-100.00,North,360,0.0,0.0,-999,-99.99,,,0.00,,2013-06-18 23:53:00,
2013-06-18 18:00:00,70.0,-99.9,-100.00,North,0,0.0,0.0,-999,-99.99,,,0.00,,2013-06-19 00:00:00,
2013-06-18 18:53:00,70.0,-99.9,-100.00,North,0,0.0,0.0,-999,-99.99,,,0.00,,2013-06-19 00:53:00,
2013-06-18 19:00:00,71.0,-99.9,-100.00,North,360,0.0,0.0,-999,-99.99,,,0.00,,2013-06-19 01:00:00,
2013-06-18 19:43:00,71.0,-99.9,-100.00,North,360,0.0,0.0,-999,-99.99,,,0.00,,2013-06-19 01:43:00,
2013-06-18 19:53:00,71.0,-99.9,-100.00,North,360,0.0,0.0,-999,-99.99,,,0.00,,2013-06-19 01:53:00,
2013-06-18 20:00:00,65.0,-99.9,-100.00,North,0,0.0,0.0,-999,-99.99,,,0.00,,2013-06-19 02:00:00,
2013-06-18 20:43:00,65.0,-99.9,-100.00,North,0,0.0,0.0,-999,-99.99,,,0.00,,2013-06-19 02:43:00,
2013-06-18 20:52:00,65.0,-99.9,-100.00,North,0,0.0,0.0,-999,-99.99,,,0.00,,2013-06-19 02:52:00,
2013-06-18 21:00:00,62.0,-99.9,-100.00,North,-999,-999.0,-999.0,-999,-99.99,,,0.00,,2013-06-19 03:00:00,
2013-06-18 21:53:00,62.0,-99.9,-100.00,North,-999,-999.0,-999.0,-999,-99.99,,,0.00,,2013-06-19 03:53:00,
2013-06-18 22:00:00,56.0,-99.9,-100.00,North,360,0.0,0.0,-999,-99.99,,,0.00,,2013-06-19 04:00:00,
2013-06-18 22:53:00,56.0,-99.9,-100.00,North,360,0.0,0.0,-999,-99.99,,,0.00,,2013-06-19 04:53:00,
2013-06-18 23:00:00,53.0,-99.9,-100.00,North,-999,-999.0,-999.0,-999,-99.99,,,-99.99,,2013-06-19 05:00:00,
2013-06-18 23:53:00,53.0,-99.9,-100.00,North,-999,-999.0,-999.0,-999,-99.99,,,-99.99,,2013-06-19 05:53:00,